createdAt,value
2018-07-13T00:02:06.594Z,15.10
2018-07-13T00:04:43.573Z,15.10
2018-07-13T00:07:22.597Z,15.10
2018-07-13T00:09:53.429Z,15.00
2018-07-13T00:12:25.357Z,14.90
2018-07-13T00:15:05.057Z,14.80
2018-07-13T00:17:33.941Z,14.70
2018-07-13T00:20:05.265Z,14.60
2018-07-13T00:22:34.217Z,14.60
2018-07-13T00:25:03.077Z,14.50
2018-07-13T00:27:32.890Z,14.50
2018-07-13T00:30:06.981Z,14.60
2018-07-13T00:32:40.829Z,14.70
2018-07-13T00:35:13.837Z,14.80
2018-07-13T00:37:48.693Z,14.80
2018-07-13T00:40:20.349Z,14.80
2018-07-13T00:42:50.241Z,14.90
2018-07-13T00:45:21.100Z,14.90
2018-07-13T00:47:53.445Z,14.90
2018-07-13T00:50:30.805Z,14.90
2018-07-13T00:53:04.257Z,14.90
2018-07-13T00:55:35.090Z,14.90
2018-07-13T00:58:14.149Z,14.80
2018-07-13T01:00:43.026Z,14.80
2018-07-13T01:03:13.933Z,14.70
2018-07-13T01:05:43.737Z,14.70
2018-07-13T01:08:18.446Z,14.80
2018-07-13T01:10:54.154Z,14.90
2018-07-13T01:16:05.046Z,14.90
2018-07-13T01:18:33.889Z,14.90
2018-07-13T01:21:03.725Z,14.80
2018-07-13T01:23:33.529Z,14.80
2018-07-13T01:26:04.353Z,14.80
2018-07-13T01:28:34.209Z,14.80
2018-07-13T01:31:02.981Z,14.80
2018-07-13T01:33:32.857Z,14.80
2018-07-13T01:36:06.105Z,14.90
2018-07-13T01:38:53.225Z,14.90
2018-07-13T01:41:24.053Z,14.90
2018-07-13T01:43:55.025Z,14.90
2018-07-13T01:46:23.865Z,14.90
2018-07-13T01:48:55.925Z,14.90
2018-07-13T01:51:28.955Z,14.80
2018-07-13T01:53:57.804Z,14.80
2018-07-13T01:56:28.041Z,14.70
2018-07-13T01:59:03.009Z,14.60
2018-07-13T02:01:35.526Z,14.50
2018-07-13T02:04:04.424Z,14.40
2018-07-13T02:06:34.319Z,14.20
2018-07-13T02:09:11.290Z,14.00
2018-07-13T02:11:40.164Z,13.80
2018-07-13T02:14:16.570Z,13.70
2018-07-13T02:16:49.963Z,13.60
2018-07-13T02:19:27.216Z,13.70
2018-07-13T02:22:09.037Z,13.70
2018-07-13T02:24:44.009Z,13.60
2018-07-13T02:27:18.661Z,13.50
2018-07-13T02:29:47.590Z,13.40
2018-07-13T02:32:18.380Z,13.30
2018-07-13T02:34:52.073Z,13.20
2018-07-13T02:37:21.913Z,13.10
2018-07-13T02:42:47.119Z,13.10
2018-07-13T02:45:17.997Z,13.00
2018-07-13T02:47:48.834Z,13.00
2018-07-13T02:50:24.077Z,13.10
2018-07-13T02:52:58.685Z,13.10
2018-07-13T02:55:31.325Z,13.20
2018-07-13T02:58:00.213Z,13.30
2018-07-13T03:00:32.413Z,13.40
2018-07-13T03:03:08.721Z,13.50
2018-07-13T03:05:38.633Z,13.60
2018-07-13T03:08:10.689Z,13.50
2018-07-13T03:10:42.593Z,13.50
2018-07-13T03:13:13.509Z,13.40
2018-07-13T03:15:44.437Z,13.40
2018-07-13T03:18:18.957Z,13.40
2018-07-13T03:20:52.535Z,13.40
2018-07-13T03:23:25.338Z,13.50
2018-07-13T03:25:55.229Z,13.50
2018-07-13T03:28:25.257Z,13.60
2018-07-13T03:30:57.649Z,13.60
2018-07-13T03:33:26.469Z,13.50
2018-07-13T03:35:55.405Z,13.40
2018-07-13T03:38:25.371Z,13.20
2018-07-13T03:43:48.529Z,13.00
2018-07-13T03:46:19.336Z,13.00
2018-07-13T03:48:49.152Z,13.00
2018-07-13T03:51:18.956Z,13.00
2018-07-13T03:54:02.464Z,13.10
2018-07-13T03:56:33.236Z,13.10
2018-07-13T03:59:06.548Z,13.10
2018-07-13T04:01:49.596Z,13.00
2018-07-13T04:04:30.568Z,13.00
2018-07-13T04:10:11.897Z,13.00
2018-07-13T04:12:44.933Z,13.00
2018-07-13T04:15:13.736Z,13.10
2018-07-13T04:20:49.720Z,13.00
2018-07-13T04:23:20.488Z,13.00
2018-07-13T04:26:01.236Z,13.00
2018-07-13T04:28:31.724Z,13.00
2018-07-13T04:31:05.080Z,13.00
2018-07-13T04:33:56.448Z,13.00
2018-07-13T04:36:32.536Z,13.00
2018-07-13T04:39:17.384Z,12.90
2018-07-13T04:41:55.685Z,13.00
2018-07-13T04:44:24.559Z,13.00
2018-07-13T04:47:14.280Z,13.10
2018-07-13T04:50:02.100Z,13.10
2018-07-13T04:52:30.959Z,13.30
2018-07-13T04:55:02.828Z,13.50
2018-07-13T04:57:34.700Z,13.80
2018-07-13T05:02:56.824Z,14.20
2018-07-13T05:05:25.696Z,14.40
2018-07-13T05:07:59.428Z,14.70
2018-07-13T05:10:33.755Z,14.80
2018-07-13T05:13:14.672Z,14.90
2018-07-13T05:15:55.439Z,15.20
2018-07-13T05:18:25.288Z,15.40
2018-07-13T05:20:57.479Z,15.40
2018-07-13T05:23:39.391Z,15.50
2018-07-13T05:26:09.320Z,15.40
2018-07-13T05:28:52.123Z,15.50
2018-07-13T05:31:32.596Z,15.60
2018-07-13T05:34:25.413Z,15.80
2018-07-13T05:36:56.300Z,15.80
2018-07-13T05:39:35.912Z,16.00
2018-07-13T05:42:10.736Z,16.20
2018-07-13T05:44:44.339Z,16.50
2018-07-13T05:47:22.768Z,17.00
2018-07-13T05:50:08.448Z,17.50
2018-07-13T05:52:41.905Z,18.00
2018-07-13T05:55:10.672Z,18.60
2018-07-13T05:57:55.798Z,19.10
2018-07-13T06:00:32.660Z,19.60
2018-07-13T06:05:55.376Z,20.40
2018-07-13T06:08:30.588Z,20.70
2018-07-13T06:11:05.284Z,21.00
2018-07-13T06:13:34.144Z,21.00
2018-07-13T06:16:03.956Z,21.10
2018-07-13T06:18:32.741Z,21.20
2018-07-13T06:21:01.484Z,21.40
2018-07-13T06:23:33.908Z,21.50
2018-07-13T06:26:12.669Z,21.70
2018-07-13T06:28:54.077Z,21.70
2018-07-13T06:31:36.939Z,21.70
2018-07-13T06:34:25.204Z,21.90
2018-07-13T06:36:55.989Z,22.00
2018-07-13T06:39:24.712Z,22.00
2018-07-13T06:41:53.536Z,21.60
2018-07-13T06:44:22.356Z,21.40
2018-07-13T06:46:53.120Z,21.50
2018-07-13T06:49:25.887Z,21.50
2018-07-13T06:52:00.616Z,21.60
2018-07-13T06:54:34.016Z,21.50
2018-07-13T06:57:04.951Z,21.30
2018-07-13T06:59:51.992Z,21.20
2018-07-13T07:02:32.884Z,21.20
2018-07-13T07:05:14.772Z,21.30
2018-07-13T07:08:05.967Z,21.20
2018-07-13T07:10:39.200Z,21.40
2018-07-13T07:13:13.376Z,21.50
2018-07-13T07:15:42.316Z,21.80
2018-07-13T07:18:17.817Z,21.70
2018-07-13T07:20:57.675Z,21.70
2018-07-13T07:23:28.429Z,21.70
2018-07-13T07:25:58.323Z,22.10
2018-07-13T07:28:27.371Z,22.00
2018-07-13T07:31:09.023Z,22.40
2018-07-13T07:33:39.623Z,22.90
2018-07-13T07:36:14.335Z,23.20
2018-07-13T07:38:43.155Z,23.60
2018-07-13T07:41:13.974Z,23.70
2018-07-13T07:43:43.831Z,24.00
2018-07-13T07:46:16.111Z,24.20
2018-07-13T07:48:45.827Z,24.50
2018-07-13T07:51:14.594Z,24.80
2018-07-13T07:53:50.920Z,25.00
2018-07-13T07:56:26.284Z,25.00
2018-07-13T07:59:05.396Z,25.50
2018-07-13T08:01:34.116Z,26.00
2018-07-13T08:04:02.905Z,26.60
2018-07-13T08:06:31.913Z,27.00
2018-07-13T08:09:03.833Z,27.40
2018-07-13T08:11:33.553Z,27.60
2018-07-13T08:14:16.362Z,27.50
2018-07-13T08:16:46.843Z,27.10
2018-07-13T08:19:16.555Z,27.60
2018-07-13T08:21:49.837Z,28.00
2018-07-13T08:24:26.395Z,27.60
2018-07-13T08:27:18.360Z,27.70
2018-07-13T08:29:58.931Z,27.40
2018-07-13T08:32:29.634Z,27.80
2018-07-13T08:37:55.632Z,28.20
2018-07-13T08:40:24.546Z,28.40
2018-07-13T08:43:09.982Z,28.40
2018-07-13T08:45:49.125Z,28.80
2018-07-13T08:48:34.770Z,29.60
2018-07-13T08:53:58.166Z,30.30
2018-07-13T08:56:34.619Z,30.60
2018-07-13T09:02:05.664Z,31.40
2018-07-13T09:04:34.554Z,31.90
2018-07-13T09:07:05.411Z,31.30
2018-07-13T09:09:34.151Z,30.50
2018-07-13T09:12:16.736Z,30.20
2018-07-13T09:14:45.759Z,30.50
2018-07-13T09:17:14.668Z,31.00
2018-07-13T09:19:43.400Z,31.60
2018-07-13T09:22:13.064Z,31.80
2018-07-13T09:24:43.951Z,32.20
2018-07-13T09:27:16.239Z,32.90
2018-07-13T09:29:49.667Z,33.60
2018-07-13T09:32:18.450Z,33.90
2018-07-13T09:34:48.203Z,35.00
2018-07-13T09:37:17.979Z,35.90
2018-07-13T09:39:47.819Z,35.60
2018-07-13T09:42:17.716Z,36.00
2018-07-13T09:44:49.364Z,36.60
2018-07-13T09:47:21.719Z,37.90
2018-07-13T09:49:57.089Z,37.70
2018-07-13T09:55:06.694Z,34.10
2018-07-13T09:57:35.468Z,34.30
2018-07-13T10:00:20.360Z,34.20
2018-07-13T10:03:05.711Z,33.50
2018-07-13T10:05:35.519Z,30.90
2018-07-13T10:08:04.339Z,29.30
2018-07-13T10:10:34.215Z,29.00
2018-07-13T10:13:08.857Z,28.70
2018-07-13T10:15:44.143Z,29.60
2018-07-13T10:18:18.530Z,32.10
2018-07-13T10:20:54.775Z,33.60
2018-07-13T10:23:24.047Z,33.60
2018-07-13T10:25:58.590Z,31.70
2018-07-13T10:28:35.267Z,30.50
2018-07-13T10:31:04.287Z,29.00
2018-07-13T10:33:34.751Z,28.00
2018-07-13T10:36:05.131Z,27.50
2018-07-13T10:38:34.999Z,26.90
2018-07-13T10:41:06.139Z,26.80
2018-07-13T10:43:35.024Z,26.60
2018-07-13T10:46:03.804Z,26.50
2018-07-13T10:48:32.796Z,26.70
2018-07-13T10:51:01.657Z,26.40
2018-07-13T10:53:34.392Z,26.30
2018-07-13T10:56:04.160Z,26.00
2018-07-13T10:58:33.065Z,26.00
2018-07-13T11:01:02.772Z,25.90
2018-07-13T11:03:31.553Z,25.90
2018-07-13T11:06:00.313Z,26.10
2018-07-13T11:08:29.096Z,26.30
2018-07-13T11:10:57.920Z,26.50
2018-07-13T11:13:26.684Z,26.60
2018-07-13T11:15:56.341Z,26.90
2018-07-13T11:18:25.164Z,27.30
2018-07-13T11:20:57.252Z,28.50
2018-07-13T11:23:30.324Z,31.90
2018-07-13T11:26:02.400Z,35.60
2018-07-13T11:28:34.608Z,38.60
2018-07-13T11:31:10.867Z,40.60
2018-07-13T11:36:13.647Z,39.90
2018-07-13T11:38:42.395Z,38.10
2018-07-13T11:41:11.233Z,37.40
2018-07-13T11:43:39.988Z,38.40
2018-07-13T11:46:10.360Z,37.90
2018-07-13T11:48:43.868Z,36.40
2018-07-13T11:51:12.711Z,34.70
2018-07-13T11:53:48.260Z,33.50
2018-07-13T11:56:19.006Z,32.60
2018-07-13T11:58:58.384Z,31.60
2018-07-13T12:01:27.227Z,31.20
2018-07-13T12:03:56.467Z,31.90
2018-07-13T12:06:29.084Z,32.80
2018-07-13T12:08:57.836Z,34.00
2018-07-13T12:11:26.596Z,35.20
2018-07-13T12:13:56.319Z,35.70
2018-07-13T12:16:35.550Z,35.80
2018-07-13T12:22:01.804Z,33.10
2018-07-13T12:24:34.283Z,32.70
2018-07-13T12:27:08.312Z,32.50
2018-07-13T12:32:34.291Z,32.10
2018-07-13T12:35:20.526Z,31.60
2018-07-13T12:37:49.223Z,30.80
2018-07-13T12:40:34.483Z,30.20
2018-07-13T12:43:04.483Z,30.60
2018-07-13T12:45:35.246Z,30.40
2018-07-13T12:48:04.255Z,30.60
2018-07-13T12:50:35.015Z,31.10
2018-07-13T12:53:03.798Z,31.70
2018-07-13T12:55:32.607Z,32.50
2018-07-13T12:58:08.895Z,33.30
2018-07-13T13:00:37.719Z,34.40
2018-07-13T13:03:16.978Z,37.10
2018-07-13T13:05:46.796Z,39.90
2018-07-13T13:08:15.587Z,41.10
2018-07-13T13:10:46.402Z,41.20
2018-07-13T13:13:17.247Z,39.80
2018-07-13T13:15:49.809Z,38.60
2018-07-13T13:18:25.195Z,37.00
2018-07-13T13:20:54.068Z,35.20
2018-07-13T13:23:22.811Z,33.30
2018-07-13T13:25:57.199Z,32.40
2018-07-13T13:28:35.709Z,33.00
2018-07-13T13:31:05.607Z,33.70
2018-07-13T13:33:36.318Z,35.20
2018-07-13T13:36:08.298Z,37.30
2018-07-13T13:38:39.038Z,36.60
2018-07-13T13:41:12.398Z,35.00
2018-07-13T13:43:45.405Z,33.80
2018-07-13T13:46:30.434Z,32.90
2018-07-13T13:49:01.169Z,31.90
2018-07-13T13:51:35.072Z,30.90
2018-07-13T13:54:05.854Z,30.10
2018-07-13T13:56:34.566Z,29.40
2018-07-13T13:59:06.473Z,30.00
2018-07-13T14:04:21.878Z,35.00
2018-07-13T14:06:50.858Z,38.00
2018-07-13T14:09:32.296Z,39.30
2018-07-13T14:14:35.304Z,35.60
2018-07-13T14:17:06.229Z,34.10
2018-07-13T14:19:35.016Z,33.30
2018-07-13T14:22:07.561Z,32.90
2018-07-13T14:24:36.353Z,32.50
2018-07-13T14:27:12.929Z,32.10
2018-07-13T14:29:52.206Z,31.40
2018-07-13T14:32:21.641Z,30.80
2018-07-13T14:34:51.352Z,30.60
2018-07-13T14:37:25.085Z,31.90
2018-07-13T14:39:59.129Z,33.50
2018-07-13T14:42:28.566Z,33.10
2018-07-13T14:45:19.362Z,32.60
2018-07-13T14:47:52.279Z,32.70
2018-07-13T14:50:26.831Z,32.30
2018-07-13T14:52:56.602Z,32.00
2018-07-13T14:55:35.322Z,31.80
2018-07-13T14:58:09.483Z,31.60
2018-07-13T15:00:38.346Z,31.50
2018-07-13T15:03:13.027Z,31.50
2018-07-13T15:05:59.496Z,31.10
2018-07-13T15:08:34.126Z,30.70
2018-07-13T15:11:02.978Z,30.10
2018-07-13T15:13:35.803Z,29.50
2018-07-13T15:16:07.763Z,29.20
2018-07-13T15:18:37.755Z,29.00
2018-07-13T15:24:05.948Z,28.50
2018-07-13T15:26:34.747Z,28.10
2018-07-13T15:29:20.571Z,28.10
2018-07-13T15:31:59.095Z,29.10
2018-07-13T15:34:27.863Z,29.20
2018-07-13T15:37:01.755Z,29.20
2018-07-13T15:39:30.536Z,29.10
2018-07-13T15:42:04.968Z,29.10
2018-07-13T15:44:34.966Z,28.90
2018-07-13T15:47:05.711Z,28.60
2018-07-13T15:49:36.494Z,28.40
2018-07-13T15:52:11.234Z,28.50
2018-07-13T15:54:41.988Z,28.60
2018-07-13T15:57:11.830Z,28.60
2018-07-13T15:59:40.814Z,28.40
2018-07-13T16:02:11.569Z,28.40
2018-07-13T16:04:41.348Z,28.40
2018-07-13T16:07:10.114Z,28.40
2018-07-13T16:12:15.022Z,28.00
2018-07-13T16:14:44.745Z,27.90
2018-07-13T16:17:13.521Z,27.70
2018-07-13T16:19:45.886Z,27.60
2018-07-13T16:22:22.133Z,27.50
2018-07-13T16:25:13.830Z,27.40
2018-07-13T16:27:48.727Z,27.40
2018-07-13T16:30:24.830Z,27.40
2018-07-13T16:32:55.654Z,27.50
2018-07-13T16:35:35.110Z,27.50
2018-07-13T16:38:05.874Z,27.60
2018-07-13T16:40:34.622Z,28.50
2018-07-13T16:43:05.442Z,29.10
2018-07-13T16:45:35.194Z,29.20
2018-07-13T16:48:03.994Z,30.60
2018-07-13T16:50:32.759Z,30.60
2018-07-13T16:53:02.507Z,29.40
2018-07-13T16:55:41.129Z,29.00
2018-07-13T16:58:16.186Z,28.70
2018-07-13T17:01:03.758Z,28.50
2018-07-13T17:03:35.908Z,28.90
2018-07-13T17:06:07.810Z,29.60
2018-07-13T17:11:29.390Z,28.10
2018-07-13T17:14:03.031Z,27.20
2018-07-13T17:16:31.867Z,27.20
2018-07-13T17:19:00.654Z,27.30
2018-07-13T17:24:09.467Z,28.00
2018-07-13T17:26:39.403Z,27.90
2018-07-13T17:29:08.271Z,27.70
2018-07-13T17:31:37.040Z,28.20
2018-07-13T17:34:11.026Z,28.80
2018-07-13T17:36:39.914Z,29.10
2018-07-13T17:39:12.471Z,29.20
2018-07-13T17:42:00.002Z,29.30
2018-07-13T17:47:03.219Z,29.20
2018-07-13T17:49:35.327Z,29.10
2018-07-13T17:52:14.733Z,29.10
2018-07-13T17:54:43.578Z,28.60
2018-07-13T17:57:18.075Z,27.80
2018-07-13T17:59:50.662Z,27.00
2018-07-13T18:02:23.569Z,26.20
2018-07-13T18:04:57.494Z,25.50
2018-07-13T18:07:35.886Z,25.10
2018-07-13T18:10:05.723Z,24.70
2018-07-13T18:12:34.650Z,24.30
2018-07-13T18:15:13.740Z,24.00
2018-07-13T18:17:47.226Z,23.70
2018-07-13T18:23:20.150Z,23.30
2018-07-13T18:25:49.001Z,23.10
2018-07-13T18:28:34.697Z,22.90
2018-07-13T18:31:13.274Z,22.80
2018-07-13T18:33:54.646Z,22.60
2018-07-13T18:36:34.738Z,22.50
2018-07-13T18:39:05.226Z,22.30
2018-07-13T18:41:34.081Z,22.20
2018-07-13T18:44:02.785Z,22.00
2018-07-13T18:46:32.529Z,21.90
2018-07-13T18:49:03.305Z,21.80
2018-07-13T18:51:39.109Z,21.60
2018-07-13T18:54:07.993Z,21.50
2018-07-13T18:56:36.713Z,21.30
2018-07-13T18:59:06.532Z,21.20
2018-07-13T19:01:35.553Z,21.00
2018-07-13T19:04:09.781Z,20.90
2018-07-13T19:06:41.901Z,20.80
2018-07-13T19:09:11.721Z,20.70
2018-07-13T19:11:40.493Z,20.60
2018-07-13T19:14:19.498Z,20.60
2018-07-13T19:16:50.237Z,20.50
2018-07-13T19:22:14.295Z,20.40
2018-07-13T19:27:30.966Z,20.20
2018-07-13T19:30:00.688Z,20.20
2018-07-13T19:32:30.435Z,20.20
2018-07-13T19:35:01.387Z,20.20
2018-07-13T19:37:30.192Z,20.10
2018-07-13T19:40:00.966Z,20.00
2018-07-13T19:42:30.718Z,19.90
2018-07-13T19:45:08.718Z,19.80
2018-07-13T19:47:39.514Z,19.70
2018-07-13T19:50:10.250Z,19.60
2018-07-13T19:55:15.054Z,19.30
2018-07-13T19:57:51.080Z,19.20
2018-07-13T20:00:20.841Z,19.10
2018-07-13T20:02:54.879Z,19.00
2018-07-13T20:05:37.138Z,18.90
2018-07-13T20:08:16.575Z,18.70
2018-07-13T20:11:03.264Z,18.60
2018-07-13T20:13:36.310Z,18.50
2018-07-13T20:16:08.866Z,18.40
2018-07-13T20:18:39.766Z,18.40
2018-07-13T20:21:10.622Z,18.30
2018-07-13T20:23:45.019Z,18.20
2018-07-13T20:28:44.345Z,18.10
2018-07-13T20:31:20.585Z,18.00
2018-07-13T20:33:59.341Z,17.90
2018-07-13T20:36:30.165Z,17.80
2018-07-13T20:39:03.769Z,17.70
2018-07-13T20:44:05.502Z,17.80
2018-07-13T20:46:35.331Z,17.60
2018-07-13T20:49:05.153Z,17.50
2018-07-13T20:51:35.948Z,17.50
2018-07-13T20:54:11.556Z,17.50
2018-07-13T20:56:40.417Z,17.40
2018-07-13T20:59:20.621Z,17.20
2018-07-13T21:01:50.529Z,17.20
2018-07-13T21:04:20.417Z,17.10
2018-07-13T21:06:51.197Z,17.00
2018-07-13T21:09:23.181Z,16.80
2018-07-13T21:11:55.436Z,16.60
2018-07-13T21:14:25.197Z,16.50
2018-07-13T21:16:58.576Z,16.40
2018-07-13T21:19:27.445Z,16.30
2018-07-13T21:22:00.933Z,16.20
2018-07-13T21:24:33.596Z,16.20
2018-07-13T21:27:04.572Z,16.10
2018-07-13T21:29:42.704Z,16.10
2018-07-13T21:32:12.464Z,16.10
2018-07-13T21:34:41.267Z,16.10
2018-07-13T21:37:11.029Z,16.20
2018-07-13T21:39:40.796Z,16.30
2018-07-13T21:44:39.941Z,16.60
2018-07-13T21:47:12.472Z,16.60
2018-07-13T21:49:41.753Z,16.60
2018-07-13T21:52:12.631Z,16.50
2018-07-13T21:54:41.440Z,16.30
2018-07-13T21:57:10.281Z,16.10
2018-07-13T21:59:40.348Z,15.90
2018-07-13T22:02:16.094Z,15.80
2018-07-13T22:04:49.765Z,15.70
2018-07-13T22:07:25.456Z,15.60
2018-07-13T22:09:59.225Z,15.60
2018-07-13T22:12:28.116Z,15.60
2018-07-13T22:14:57.205Z,15.70
2018-07-13T22:17:26.025Z,15.60
2018-07-13T22:19:55.965Z,15.50
2018-07-13T22:22:25.905Z,15.40
2018-07-13T22:24:54.741Z,15.30
2018-07-13T22:27:26.579Z,15.30
2018-07-13T22:29:56.369Z,15.20
2018-07-13T22:34:58.461Z,15.20
2018-07-13T22:37:27.329Z,15.10
2018-07-13T22:39:59.402Z,15.00
2018-07-13T22:42:30.256Z,14.80
2018-07-13T22:45:15.360Z,14.80
2018-07-13T22:47:50.801Z,14.90
2018-07-13T22:50:24.625Z,14.90
2018-07-13T22:52:56.837Z,15.00
2018-07-13T22:55:26.636Z,15.00
2018-07-13T22:57:58.697Z,15.10
2018-07-13T23:00:27.514Z,15.10
2018-07-13T23:02:56.401Z,15.10
2018-07-13T23:05:30.569Z,15.00
2018-07-13T23:08:09.224Z,15.00
2018-07-13T23:10:43.877Z,15.00
2018-07-13T23:13:14.673Z,14.90
2018-07-13T23:15:43.505Z,15.00
2018-07-13T23:18:15.673Z,15.00
2018-07-13T23:20:56.566Z,14.90
2018-07-13T23:23:26.397Z,14.90
2018-07-13T23:25:59.097Z,14.80
2018-07-13T23:28:29.986Z,14.70
2018-07-13T23:31:06.154Z,14.70
2018-07-13T23:33:34.945Z,14.70
2018-07-13T23:36:04.755Z,14.60
2018-07-13T23:38:33.619Z,14.50
2018-07-13T23:41:02.469Z,14.40
2018-07-13T23:43:37.081Z,14.30
2018-07-13T23:46:05.972Z,14.30
2018-07-13T23:48:35.744Z,14.30
2018-07-13T23:53:33.948Z,14.20
2018-07-13T23:56:08.280Z,14.10
2018-07-13T23:58:38.140Z,14.10
